Airfield :
LOGIN :

Register | Disclaimer

   EN    FR    IT 

 










Legend :    VFR   Marginal VFR   IFR   Intensive IFR   Very Intensive IFR
Visi :
Ceiling :
>= 8 km
>= 3000ft
5 to 8 km
1000 to 3000 ft
1500m to 5 km
500 to 1000 ft
800 to 1500m
200 to 500 ft
< 800m
< 200 ft
Symbols :   Thunderstorms  Fog  Heavy snow  Heavy precipitations  Wind > 20 kt
SIGMETs :     Misc.  Thunderstorms  Icing  Turbulence  Mountain Waves  Volcanic Ashes






- Airport Elevation : 53 ft
- IATA code : HAM


EDDH - Hamburg

CURRENT METAR :
  • 151720Z 07010KT 7000 BKN010 07/05 Q1004 TEMPO BKN015

EXPIRED METARs :
  • 151650Z 06009KT 7000 BKN010 BKN029 07/05 Q1005 TEMPO BKN015
  • 151620Z 07008KT 6000 BKN009 06/05 Q1005 NOSIG
  • 151550Z 07008KT 040V100 5000 -DZ BR BKN007 06/05 Q1005 NOSIG
  • 151520Z 08009KT 050V110 5000 BR BKN007 06/05 Q1005 NOSIG
  • 151450Z 07011KT 6000 BKN007 06/05 Q1005 NOSIG

TAF TAF EDDH
Valid from the 15 at 12:00 until the 16 at 18:00 UTC


151100Z 1512/1618 08015KT 9999 BKN012
TEMPO 1512/1514 08015G25KT BKN007
BECMG 1514/1517 08010KT
TEMPO 1517/1602 3000 BR BKN007
BECMG 1521/1524 07005KT
PROB40
TEMPO 1521/1605 0500 -DZ FG OVC001
BECMG 1602/1605 25005KT BKN007
TEMPO 1602/1605 3000 BR
TEMPO 1605/1613 3000 RADZ BKN003
BECMG 1613/1616 BKN012
TEMPO 1613/1616 4000 -RADZ
BECMG 1616/1618 BKN015



MET'MAP, your aeronautical weather chart ! - Copyright ORBIFLY December 2007 - Disclaimer

ORBIFLY MET'MAP TEAM :

Programming & Development : Alexandra Zaïnal
Concept & Development : Baudouin d'Aumeries
Co-Development & Prog : Marc-Olivier Méhu
Technical & hardware support : Manuel Goepfert

Contact : metmap@orbifly.com




SOURCES & CREDITS :

   NOAA